createdAt,value
2022-08-10T00:00:39.831Z,19.90
2022-08-10T00:03:09.938Z,19.70
2022-08-10T00:05:43.163Z,19.50
2022-08-10T00:08:12.766Z,19.30
2022-08-10T00:10:51.513Z,19.10
2022-08-10T00:13:19.463Z,18.90
2022-08-10T00:15:54.275Z,18.90
2022-08-10T00:18:34.831Z,18.80
2022-08-10T00:21:06.681Z,18.60
2022-08-10T00:23:34.572Z,18.70
2022-08-10T00:26:03.259Z,18.80
2022-08-10T00:28:31.425Z,19.00
2022-08-10T00:30:59.399Z,19.20
2022-08-10T00:33:27.565Z,19.40
2022-08-10T00:35:55.444Z,19.40
2022-08-10T00:38:24.903Z,19.40
2022-08-10T00:40:52.813Z,19.60
2022-08-10T00:43:23.460Z,19.70
2022-08-10T00:45:58.957Z,19.80
2022-08-10T00:48:29.082Z,19.70
2022-08-10T00:50:57.032Z,19.60
2022-08-10T00:53:26.349Z,19.40
2022-08-10T00:57:12.393Z,19.20
2022-08-10T00:58:42.562Z,19.10
2022-08-10T01:02:07.878Z,19.00
2022-08-10T01:04:54.451Z,19.00
2022-08-10T01:06:59.912Z,19.10
2022-08-10T01:09:40.888Z,19.10
2022-08-10T01:12:40.378Z,19.10
2022-08-10T01:15:11.336Z,19.00
2022-08-10T01:17:50.693Z,18.80
2022-08-10T01:20:30.633Z,18.60
2022-08-10T01:23:30.189Z,18.60
2022-08-10T01:26:31.243Z,18.40
2022-08-10T01:29:21.550Z,18.10
2022-08-10T01:31:54.431Z,18.00
2022-08-10T01:34:26.540Z,18.10
2022-08-10T01:37:00.537Z,18.10
2022-08-10T01:39:33.983Z,18.40
2022-08-10T01:42:03.696Z,18.40
2022-08-10T01:44:36.227Z,18.70
2022-08-10T01:47:27.582Z,18.70
2022-08-10T01:50:01.592Z,18.80
2022-08-10T01:52:31.890Z,18.70
2022-08-10T01:55:00.281Z,18.80
2022-08-10T01:57:31.364Z,18.90
2022-08-10T02:00:02.225Z,18.80
2022-08-10T02:02:34.836Z,18.50
2022-08-10T02:05:04.965Z,18.60
2022-08-10T02:07:36.416Z,18.70
2022-08-10T02:10:11.760Z,18.80
2022-08-10T02:12:41.860Z,18.80
2022-08-10T02:15:14.003Z,18.70
2022-08-10T02:17:59.003Z,18.50
2022-08-10T02:20:34.393Z,18.30
2022-08-10T02:23:06.065Z,18.30
2022-08-10T02:25:40.609Z,18.30
2022-08-10T02:28:29.326Z,18.30
2022-08-10T02:31:03.700Z,18.40
2022-08-10T02:33:36.923Z,18.40
2022-08-10T02:36:08.791Z,18.30
2022-08-10T02:38:57.702Z,18.10
2022-08-10T02:45:02.779Z,17.90
2022-08-10T02:45:21.566Z,17.80
2022-08-10T02:47:22.597Z,17.60
2022-08-10T02:50:00.470Z,17.40
2022-08-10T02:52:32.747Z,17.20
2022-08-10T02:55:04.647Z,17.30
2022-08-10T02:58:17.147Z,17.40
2022-08-10T03:00:44.612Z,17.30
2022-08-10T03:03:19.813Z,17.10
2022-08-10T03:05:53.965Z,17.20
2022-08-10T03:08:26.691Z,17.40
2022-08-10T03:10:55.848Z,17.50
2022-08-10T03:13:25.413Z,17.60
2022-08-10T03:15:53.969Z,17.80
2022-08-10T03:18:24.573Z,17.90
2022-08-10T03:20:55.450Z,18.00
2022-08-10T03:23:25.327Z,18.10
2022-08-10T03:25:56.587Z,18.00
2022-08-10T03:28:26.290Z,18.00
2022-08-10T03:30:55.411Z,17.90
2022-08-10T03:33:26.447Z,17.90
2022-08-10T03:36:41.944Z,18.00
2022-08-10T03:38:46.040Z,17.90
2022-08-10T03:41:16.100Z,18.00
2022-08-10T03:43:47.745Z,17.80
2022-08-10T03:46:19.103Z,17.60
2022-08-10T03:48:49.342Z,17.50
2022-08-10T03:51:20.416Z,17.50
2022-08-10T03:54:05.770Z,17.30
2022-08-10T03:56:37.469Z,17.50
2022-08-10T03:59:06.281Z,17.60
2022-08-10T04:02:43.420Z,17.50
2022-08-10T04:04:25.439Z,17.30
2022-08-10T04:06:56.607Z,17.10
2022-08-10T04:09:42.673Z,17.00
2022-08-10T04:12:15.185Z,16.90
2022-08-10T04:14:49.883Z,16.90
2022-08-10T04:18:03.292Z,16.70
2022-08-10T04:20:20.249Z,16.70
2022-08-10T04:22:53.276Z,16.60
2022-08-10T04:25:22.097Z,16.50
2022-08-10T04:27:50.783Z,16.50
2022-08-10T04:30:19.034Z,16.60
2022-08-10T04:32:51.760Z,16.50
2022-08-10T04:35:21.874Z,16.70
2022-08-10T04:37:52.509Z,16.80
2022-08-10T04:40:29.488Z,17.10
2022-08-10T04:43:10.438Z,17.30
2022-08-10T04:45:49.246Z,17.20
2022-08-10T04:48:40.210Z,17.30
2022-08-10T04:51:17.008Z,17.20
2022-08-10T04:54:02.950Z,17.40
2022-08-10T04:56:34.038Z,17.50
2022-08-10T04:59:01.902Z,17.70
2022-08-10T05:01:37.618Z,17.70
2022-08-10T05:04:34.462Z,17.80
2022-08-10T05:07:05.931Z,17.90
2022-08-10T05:10:02.066Z,17.90
2022-08-10T05:12:26.357Z,17.90
2022-08-10T05:14:54.543Z,17.90
2022-08-10T05:17:23.273Z,17.90
2022-08-10T05:20:03.277Z,18.00
2022-08-10T05:22:34.833Z,18.10
2022-08-10T05:25:05.089Z,18.10
2022-08-10T05:27:33.527Z,18.10
2022-08-10T05:30:03.364Z,18.20
2022-08-10T05:32:32.177Z,18.20
2022-08-10T05:35:00.030Z,18.20
2022-08-10T05:38:12.331Z,18.30
2022-08-10T05:40:21.956Z,18.40
2022-08-10T05:42:50.370Z,18.40
2022-08-10T05:45:22.176Z,18.40
2022-08-10T05:48:54.049Z,18.40
2022-08-10T05:50:38.154Z,18.40
2022-08-10T05:53:59.298Z,18.40
2022-08-10T05:55:55.702Z,18.30
2022-08-10T05:58:23.800Z,18.50
2022-08-10T06:00:55.227Z,18.60
2022-08-10T06:03:27.211Z,18.70
2022-08-10T06:05:56.158Z,18.80
2022-08-10T06:08:26.821Z,18.90
2022-08-10T06:12:26.566Z,19.00
2022-08-10T06:14:12.997Z,19.20
2022-08-10T06:16:45.150Z,19.40
2022-08-10T06:19:14.777Z,19.50
2022-08-10T06:22:00.527Z,19.60
2022-08-10T06:24:30.911Z,19.70
2022-08-10T06:27:00.527Z,19.90
2022-08-10T06:29:32.059Z,20.00
2022-08-10T06:32:01.950Z,20.10
2022-08-10T06:34:33.811Z,20.10
2022-08-10T06:37:05.272Z,20.20
2022-08-10T06:39:35.263Z,20.50
2022-08-10T06:42:16.856Z,20.60
2022-08-10T06:44:54.532Z,20.80
2022-08-10T06:47:26.420Z,20.90
2022-08-10T06:49:59.784Z,21.00
2022-08-10T06:52:31.706Z,21.20
2022-08-10T06:55:01.337Z,21.50
2022-08-10T06:57:37.969Z,21.60
2022-08-10T07:00:08.066Z,21.80
2022-08-10T07:02:43.751Z,22.00
2022-08-10T07:05:16.369Z,22.10
2022-08-10T07:07:46.726Z,22.30
2022-08-10T07:10:19.575Z,22.70
2022-08-10T07:12:51.175Z,22.80
2022-08-10T07:15:20.542Z,23.00
2022-08-10T07:17:49.947Z,23.20
2022-08-10T07:20:19.394Z,23.30
2022-08-10T07:23:04.840Z,23.30
2022-08-10T07:25:38.867Z,23.50
2022-08-10T07:28:08.946Z,23.80
2022-08-10T07:30:39.321Z,24.10
2022-08-10T07:33:08.326Z,24.50
2022-08-10T07:35:43.238Z,24.80
2022-08-10T07:38:17.092Z,24.90
2022-08-10T07:40:45.461Z,25.00
2022-08-10T07:43:16.871Z,25.20
2022-08-10T07:45:45.919Z,25.40
2022-08-10T07:48:17.854Z,25.90
2022-08-10T07:50:46.995Z,26.10
2022-08-10T07:53:21.008Z,26.20
2022-08-10T07:56:03.752Z,26.20
2022-08-10T07:58:46.184Z,26.30
2022-08-10T08:01:24.067Z,26.50
2022-08-10T08:04:06.025Z,26.50
2022-08-10T08:06:41.074Z,26.80
2022-08-10T08:09:09.915Z,26.80
2022-08-10T08:11:39.802Z,26.70
2022-08-10T08:14:10.033Z,26.90
2022-08-10T08:16:41.285Z,27.20
2022-08-10T08:19:27.988Z,27.20
2022-08-10T08:24:05.429Z,27.00
2022-08-10T08:24:45.859Z,27.00
2022-08-10T08:27:16.635Z,27.00
2022-08-10T08:29:47.372Z,26.90
2022-08-10T08:32:19.190Z,27.10
2022-08-10T08:34:48.289Z,27.40
2022-08-10T08:38:27.286Z,27.60
2022-08-10T08:40:09.726Z,27.70
2022-08-10T08:42:59.545Z,27.70
2022-08-10T08:45:48.208Z,27.60
2022-08-10T08:48:42.830Z,27.70
2022-08-10T08:52:09.227Z,27.80
2022-08-10T08:54:18.153Z,28.00
2022-08-10T08:56:56.989Z,28.50
2022-08-10T08:59:38.157Z,28.80
2022-08-10T09:02:18.965Z,29.00
2022-08-10T09:05:01.296Z,28.90
2022-08-10T09:08:03.339Z,29.00
2022-08-10T09:10:51.203Z,28.70
2022-08-10T09:13:27.590Z,28.80
2022-08-10T09:16:04.878Z,29.00
2022-08-10T09:18:43.045Z,29.20
2022-08-10T09:21:17.932Z,28.90
2022-08-10T09:24:04.421Z,28.40
2022-08-10T09:26:43.413Z,28.80
2022-08-10T09:29:15.334Z,28.90
2022-08-10T09:33:05.382Z,28.90
2022-08-10T09:36:21.067Z,29.00
2022-08-10T09:38:01.015Z,29.50
2022-08-10T09:40:59.304Z,29.70
2022-08-10T09:43:35.343Z,29.90
2022-08-10T09:46:11.805Z,30.00
2022-08-10T09:48:46.561Z,30.20
2022-08-10T09:51:45.199Z,30.50
2022-08-10T09:54:29.243Z,30.20
2022-08-10T09:57:44.147Z,30.10
2022-08-10T10:00:02.778Z,30.20
2022-08-10T10:02:39.173Z,30.30
2022-08-10T10:05:18.574Z,30.60
2022-08-10T10:07:56.573Z,30.60
2022-08-10T10:10:33.650Z,30.40
2022-08-10T10:13:08.340Z,30.30
2022-08-10T10:15:42.942Z,30.50
2022-08-10T10:18:28.153Z,30.50
2022-08-10T10:21:04.280Z,30.50
2022-08-10T10:23:59.721Z,30.60
2022-08-10T10:26:38.131Z,30.60
2022-08-10T10:29:46.350Z,30.60
2022-08-10T10:32:09.519Z,30.80
2022-08-10T10:34:46.880Z,30.90
2022-08-10T10:37:16.037Z,31.00
2022-08-10T10:39:48.291Z,31.20
2022-08-10T10:42:44.839Z,31.20
2022-08-10T10:45:19.368Z,31.30
2022-08-10T10:48:03.586Z,31.20
2022-08-10T10:50:39.684Z,31.60
2022-08-10T10:53:17.983Z,31.70
2022-08-10T10:56:15.155Z,31.60
2022-08-10T10:58:49.436Z,31.90
2022-08-10T11:01:33.347Z,31.80
2022-08-10T11:04:16.947Z,31.60
2022-08-10T11:06:57.195Z,31.70
2022-08-10T11:10:05.188Z,31.50
2022-08-10T11:12:27.521Z,31.50
2022-08-10T11:15:03.663Z,31.30
2022-08-10T11:17:35.519Z,31.40
2022-08-10T11:20:11.248Z,31.50
2022-08-10T11:22:47.075Z,31.50
2022-08-10T11:25:21.905Z,31.50
2022-08-10T11:27:58.101Z,31.60
2022-08-10T11:30:32.115Z,31.70
2022-08-10T11:33:13.075Z,31.40
2022-08-10T11:35:47.164Z,31.10
2022-08-10T11:38:30.059Z,30.90
2022-08-10T11:42:05.771Z,30.90
2022-08-10T11:44:08.429Z,31.40
2022-08-10T11:46:41.303Z,31.50
2022-08-10T11:49:14.706Z,31.70
2022-08-10T11:51:46.252Z,31.70
2022-08-10T11:54:25.275Z,31.30
2022-08-10T11:57:01.352Z,31.30
2022-08-10T11:59:58.590Z,31.60
2022-08-10T12:02:32.198Z,31.80
2022-08-10T12:05:04.459Z,31.40
2022-08-10T12:10:03.805Z,31.20
2022-08-10T12:10:23.982Z,31.40
2022-08-10T12:12:55.534Z,31.80
2022-08-10T12:15:34.393Z,32.00
2022-08-10T12:18:05.927Z,32.50
2022-08-10T12:20:36.786Z,32.30
2022-08-10T12:23:12.702Z,32.50
2022-08-10T12:25:57.436Z,32.90
2022-08-10T12:28:49.313Z,33.30
2022-08-10T12:31:25.971Z,33.20
2022-08-10T12:34:04.382Z,32.80
2022-08-10T12:36:38.692Z,33.10
2022-08-10T12:39:13.302Z,32.90
2022-08-10T12:41:46.007Z,33.10
2022-08-10T12:44:18.909Z,33.10
2022-08-10T12:46:55.785Z,33.10
2022-08-10T12:49:31.291Z,33.30
2022-08-10T12:52:06.090Z,32.90
2022-08-10T12:54:37.139Z,32.80
2022-08-10T12:57:11.070Z,32.70
2022-08-10T12:59:43.157Z,33.00
2022-08-10T13:02:15.037Z,33.00
2022-08-10T13:04:44.086Z,32.80
2022-08-10T13:08:03.773Z,32.90
2022-08-10T13:10:03.303Z,33.40
2022-08-10T13:12:38.119Z,33.60
2022-08-10T13:15:43.287Z,33.50
2022-08-10T13:18:06.027Z,33.50
2022-08-10T13:20:49.951Z,33.80
2022-08-10T13:23:21.067Z,33.90
2022-08-10T13:25:51.515Z,34.00
2022-08-10T13:28:37.620Z,33.60
2022-08-10T13:31:17.081Z,33.40
2022-08-10T13:34:41.045Z,33.20
2022-08-10T13:36:41.532Z,33.30
2022-08-10T13:39:11.045Z,32.80
2022-08-10T13:41:41.087Z,32.70
2022-08-10T13:44:12.646Z,32.70
2022-08-10T13:46:42.329Z,32.60
2022-08-10T13:49:15.005Z,32.90
2022-08-10T13:51:54.185Z,33.00
2022-08-10T13:54:28.264Z,32.90
2022-08-10T13:56:57.661Z,32.20
2022-08-10T14:00:36.234Z,32.50
2022-08-10T14:02:23.705Z,33.00
2022-08-10T14:04:55.217Z,33.10
2022-08-10T14:07:23.885Z,33.10
2022-08-10T14:09:53.910Z,33.20
2022-08-10T14:12:32.047Z,33.40
2022-08-10T14:15:03.478Z,33.70
2022-08-10T14:17:31.903Z,34.00
2022-08-10T14:20:03.501Z,33.60
2022-08-10T14:22:33.875Z,33.40
2022-08-10T14:25:07.079Z,33.40
2022-08-10T14:28:02.989Z,33.50
2022-08-10T14:30:31.141Z,33.60
2022-08-10T14:33:04.138Z,33.70
2022-08-10T14:36:21.108Z,33.60
2022-08-10T14:38:27.628Z,33.60
2022-08-10T14:40:58.066Z,33.40
2022-08-10T14:43:29.194Z,33.70
2022-08-10T14:46:01.448Z,33.80
2022-08-10T14:48:33.825Z,33.50
2022-08-10T14:51:05.419Z,33.40
2022-08-10T14:53:37.335Z,33.30
2022-08-10T14:56:09.405Z,32.90
2022-08-10T14:58:59.091Z,32.80
2022-08-10T15:02:01.424Z,32.80
2022-08-10T15:04:19.141Z,32.70
2022-08-10T15:06:55.187Z,32.80
2022-08-10T15:09:24.912Z,32.50
2022-08-10T15:12:15.110Z,32.30
2022-08-10T15:14:45.866Z,32.10
2022-08-10T15:17:16.890Z,32.60
2022-08-10T15:20:03.022Z,32.60
2022-08-10T15:22:38.142Z,32.60
2022-08-10T15:25:19.370Z,32.30
2022-08-10T15:27:55.743Z,32.20
2022-08-10T15:30:32.162Z,32.30
2022-08-10T15:33:21.252Z,32.40
2022-08-10T15:36:27.296Z,32.50
2022-08-10T15:39:02.354Z,32.60
2022-08-10T15:41:57.394Z,32.90
2022-08-10T15:44:38.742Z,33.00
2022-08-10T15:47:10.605Z,32.50
2022-08-10T15:49:45.523Z,32.30
2022-08-10T15:52:39.332Z,32.50
2022-08-10T15:55:42.795Z,32.50
2022-08-10T15:58:07.474Z,32.50
2022-08-10T16:00:39.648Z,32.80
2022-08-10T16:03:13.109Z,32.30
2022-08-10T16:06:02.510Z,32.10
2022-08-10T16:08:55.953Z,31.80
2022-08-10T16:11:38.388Z,31.70
2022-08-10T16:14:17.069Z,31.40
2022-08-10T16:16:50.252Z,31.00
2022-08-10T16:19:23.874Z,31.30
2022-08-10T16:22:02.156Z,31.60
2022-08-10T16:24:37.596Z,31.70
2022-08-10T16:27:09.242Z,31.90
2022-08-10T16:29:54.449Z,31.90
2022-08-10T16:32:26.290Z,31.90
2022-08-10T16:34:56.416Z,32.00
2022-08-10T16:37:57.027Z,31.50
2022-08-10T16:40:21.518Z,31.50
2022-08-10T16:42:52.303Z,31.10
2022-08-10T16:45:24.714Z,30.80
2022-08-10T16:47:54.505Z,30.80
2022-08-10T16:50:26.499Z,30.60
2022-08-10T16:52:57.232Z,30.40
2022-08-10T16:55:48.038Z,30.50
2022-08-10T16:58:18.758Z,30.40
2022-08-10T17:00:47.246Z,30.40
2022-08-10T17:04:04.689Z,30.20
2022-08-10T17:06:11.820Z,30.30
2022-08-10T17:08:48.385Z,30.40
2022-08-10T17:11:18.740Z,30.20
2022-08-10T17:13:48.780Z,30.20
2022-08-10T17:16:18.252Z,30.30
2022-08-10T17:18:47.975Z,29.90
2022-08-10T17:21:21.372Z,29.70
2022-08-10T17:23:53.665Z,29.70
2022-08-10T17:26:35.311Z,29.60
2022-08-10T17:29:53.117Z,29.50
2022-08-10T17:32:06.616Z,29.40
2022-08-10T17:34:39.267Z,29.30
2022-08-10T17:37:14.882Z,29.30
2022-08-10T17:39:48.810Z,29.20
2022-08-10T17:42:21.836Z,29.20
2022-08-10T17:44:54.053Z,29.10
2022-08-10T17:47:27.046Z,29.00
2022-08-10T17:49:57.587Z,29.00
2022-08-10T17:52:30.007Z,28.90
2022-08-10T17:55:00.953Z,28.90
2022-08-10T17:57:29.867Z,29.10
2022-08-10T18:00:02.895Z,29.20
2022-08-10T18:02:35.728Z,28.90
2022-08-10T18:05:05.427Z,28.80
2022-08-10T18:07:38.394Z,28.80
2022-08-10T18:10:09.701Z,28.80
2022-08-10T18:12:44.346Z,28.80
2022-08-10T18:15:16.668Z,28.90
2022-08-10T18:17:47.352Z,28.70
2022-08-10T18:20:19.886Z,28.60
2022-08-10T18:22:51.542Z,28.50
2022-08-10T18:25:21.682Z,28.30
2022-08-10T18:28:01.408Z,28.30
2022-08-10T18:30:36.984Z,28.30
2022-08-10T18:33:11.729Z,28.40
2022-08-10T18:35:40.566Z,28.40
2022-08-10T18:38:09.439Z,28.20
2022-08-10T18:40:41.243Z,28.20
2022-08-10T18:44:10.567Z,28.10
2022-08-10T18:46:02.052Z,28.00
2022-08-10T18:48:39.619Z,27.90
2022-08-10T18:51:08.050Z,27.80
2022-08-10T18:53:41.088Z,27.70
2022-08-10T18:56:17.230Z,27.70
2022-08-10T18:59:02.105Z,27.70
2022-08-10T19:01:59.123Z,27.70
2022-08-10T19:04:49.894Z,27.20
2022-08-10T19:07:35.865Z,27.00
2022-08-10T19:10:10.686Z,26.90
2022-08-10T19:12:48.008Z,26.80
2022-08-10T19:15:27.053Z,26.60
2022-08-10T19:18:07.695Z,26.10
2022-08-10T19:20:42.105Z,25.70
2022-08-10T19:23:18.625Z,25.40
2022-08-10T19:26:40.955Z,25.30
2022-08-10T19:28:45.110Z,25.30
2022-08-10T19:31:20.079Z,25.40
2022-08-10T19:34:11.361Z,25.50
2022-08-10T19:36:51.612Z,25.40
2022-08-10T19:39:26.190Z,25.40
2022-08-10T19:42:11.256Z,25.70
2022-08-10T19:44:48.332Z,25.50
2022-08-10T19:47:25.605Z,25.40
2022-08-10T19:50:01.562Z,25.20
2022-08-10T19:52:36.793Z,24.60
2022-08-10T19:55:15.416Z,24.80
2022-08-10T19:57:52.886Z,24.70
2022-08-10T20:00:26.974Z,24.70
2022-08-10T20:03:12.333Z,24.60
2022-08-10T20:06:18.127Z,24.60
2022-08-10T20:08:46.839Z,24.70
2022-08-10T20:11:46.195Z,24.70
2022-08-10T20:14:22.304Z,24.30
2022-08-10T20:16:55.982Z,24.10
2022-08-10T20:19:53.307Z,24.20
2022-08-10T20:22:29.286Z,24.00
2022-08-10T20:25:02.260Z,23.70
2022-08-10T20:27:58.881Z,23.30
2022-08-10T20:30:30.124Z,23.10
2022-08-10T20:33:04.964Z,23.30
2022-08-10T20:35:42.683Z,23.40
2022-08-10T20:38:19.502Z,23.60
2022-08-10T20:40:57.346Z,23.70
2022-08-10T20:43:32.323Z,23.80
2022-08-10T20:46:10.002Z,23.90
2022-08-10T20:48:43.729Z,23.90
2022-08-10T20:51:16.182Z,23.90
2022-08-10T20:53:51.496Z,23.80
2022-08-10T20:56:38.110Z,23.80
2022-08-10T21:00:02.230Z,23.60
2022-08-10T21:02:33.875Z,23.30
2022-08-10T21:05:15.747Z,23.00
2022-08-10T21:08:02.412Z,22.80
2022-08-10T21:10:49.441Z,22.70
2022-08-10T21:13:35.501Z,22.60
2022-08-10T21:16:20.359Z,22.60
2022-08-10T21:18:58.783Z,22.60
2022-08-10T21:21:45.262Z,22.40
2022-08-10T21:24:32.088Z,22.40
2022-08-10T21:30:08.879Z,22.00
2022-08-10T21:32:48.121Z,22.00
2022-08-10T21:35:36.489Z,21.80
2022-08-10T21:38:12.864Z,21.70
2022-08-10T21:41:17.876Z,22.00
2022-08-10T21:44:18.101Z,22.20
2022-08-10T21:47:41.660Z,22.30
2022-08-10T21:50:27.714Z,22.30
2022-08-10T21:53:21.841Z,22.40
2022-08-10T21:56:31.594Z,22.20
2022-08-10T21:59:23.459Z,22.20
2022-08-10T22:02:12.766Z,22.00
2022-08-10T22:04:58.831Z,21.70
2022-08-10T22:07:47.284Z,21.80
2022-08-10T22:10:37.237Z,21.90
2022-08-10T22:13:25.191Z,22.00
2022-08-10T22:16:14.955Z,22.00
2022-08-10T22:19:04.329Z,21.80
2022-08-10T22:22:20.064Z,21.80
2022-08-10T22:25:23.220Z,21.60
2022-08-10T22:28:17.675Z,21.40
2022-08-10T22:31:28.000Z,22.20
2022-08-10T22:31:30.264Z,21.20
2022-08-10T22:34:24.277Z,21.10
2022-08-10T22:37:27.019Z,21.10
2022-08-10T22:40:19.102Z,21.20
2022-08-10T22:43:10.316Z,21.20
2022-08-10T22:46:03.344Z,21.30
2022-08-10T22:48:51.013Z,21.00
2022-08-10T22:51:24.378Z,20.90
2022-08-10T22:54:30.563Z,20.60
2022-08-10T22:57:18.429Z,20.60
2022-08-10T22:59:46.249Z,20.50
2022-08-10T23:02:27.599Z,20.30
2022-08-10T23:04:59.796Z,20.40
2022-08-10T23:07:31.753Z,20.20
2022-08-10T23:10:03.543Z,20.10
2022-08-10T23:12:36.515Z,20.00
2022-08-10T23:15:25.346Z,19.80
2022-08-10T23:18:13.265Z,19.30
2022-08-10T23:20:43.800Z,19.30
2022-08-10T23:23:23.635Z,19.30
2022-08-10T23:25:56.457Z,19.40
2022-08-10T23:28:38.354Z,19.70
2022-08-10T23:31:11.884Z,19.80
2022-08-10T23:33:41.122Z,19.90
2022-08-10T23:36:34.302Z,19.70
2022-08-10T23:39:25.751Z,19.70
2022-08-10T23:42:04.667Z,19.70
2022-08-10T23:44:38.019Z,19.50
2022-08-10T23:47:07.435Z,19.70
2022-08-10T23:49:36.124Z,19.60
2022-08-10T23:52:11.470Z,19.70
2022-08-10T23:54:46.170Z,19.60
2022-08-10T23:57:18.319Z,19.40
2022-08-10T23:59:52.630Z,19.50
